Time;durP1;ratioP1;P1;durP2;ratioP2;P2;SDS_P1;SDS_P2;PMS_P1;PMS_P2;Temp;Humidity;BMP_temperature;BMP_pressure;BME280_temperature;BME280_humidity;BME280_pressure;Samples;Min_cycle;Max_cycle;Signal;HPM_P1;HPM_P2
2023/09/04 00:00:17;;;;;;;5.88;3.55;;;;;;;13.35;100.00;101878.00;689959;28;2369;-60
2023/09/04 00:00:38;;;;;;;4.90;3.45;;;;;;;13.33;100.00;101880.59;692847;28;858;-61
2023/09/04 00:00:58;;;;;;;4.93;3.47;;;;;;;13.34;100.00;101885.00;692448;28;884;-61
2023/09/04 00:01:19;;;;;;;5.20;3.43;;;;;;;13.33;100.00;101877.97;689581;28;4410;-60
2023/09/04 00:01:39;;;;;;;5.18;3.60;;;;;;;13.33;100.00;101885.00;693078;28;943;-61
2023/09/04 00:01:59;;;;;;;6.00;3.70;;;;;;;13.32;100.00;101883.22;691526;28;1832;-62
2023/09/04 00:02:20;;;;;;;5.60;3.60;;;;;;;13.30;100.00;101883.22;693048;28;923;-61
2023/09/04 00:02:41;;;;;;;5.53;3.80;;;;;;;13.28;100.00;101877.97;693091;28;808;-61
2023/09/04 00:03:02;;;;;;;5.03;3.55;;;;;;;13.28;100.00;101877.97;691924;28;1884;-61
2023/09/04 00:03:24;;;;;;;5.18;3.42;;;;;;;13.28;100.00;101883.22;690156;28;964;-61
2023/09/04 00:03:46;;;;;;;6.32;3.72;;;;;;;13.29;100.00;101881.47;690018;28;856;-61
2023/09/04 00:04:06;;;;;;;6.07;3.50;;;;;;;13.29;100.00;101879.75;688618;28;1555;-60
2023/09/04 00:04:27;;;;;;;6.22;3.53;;;;;;;13.28;100.00;101882.38;686922;28;4374;-61
2023/09/04 00:04:48;;;;;;;5.28;3.50;;;;;;;13.25;100.00;101882.31;687931;28;753;-63
2023/09/04 00:05:08;;;;;;;5.67;3.50;;;;;;;13.24;100.00;101876.22;685448;28;1765;-60
2023/09/04 00:05:32;;;;;;;4.88;3.60;;;;;;;13.24;100.00;101875.34;690285;28;1343;-61
2023/09/04 00:05:53;;;;;;;5.32;3.60;;;;;;;13.23;100.00;101874.44;691658;28;975;-60
2023/09/04 00:06:13;;;;;;;4.83;3.47;;;;;;;13.21;100.00;101876.22;690278;28;1713;-61
2023/09/04 00:06:34;;;;;;;5.37;3.80;;;;;;;13.21;100.00;101881.47;692829;28;991;-61
2023/09/04 00:06:54;;;;;;;5.80;3.83;;;;;;;13.23;100.00;101873.59;690674;28;916;-60
2023/09/04 00:07:14;;;;;;;5.55;3.80;;;;;;;13.22;100.00;101875.34;688737;28;4359;-60
2023/09/04 00:07:35;;;;;;;5.00;3.40;;;;;;;13.23;100.00;101876.22;690599;28;790;-60
2023/09/04 00:07:55;;;;;;;5.90;3.50;;;;;;;13.22;100.00;101879.69;690716;28;1289;-60
2023/09/04 00:08:15;;;;;;;6.30;3.80;;;;;;;13.21;100.00;101880.56;689017;28;1461;-61
2023/09/04 00:08:36;;;;;;;4.97;3.53;;;;;;;13.17;100.00;101874.44;690542;28;1287;-61
2023/09/04 00:08:58;;;;;;;5.47;3.60;;;;;;;13.18;100.00;101875.31;690630;28;813;-60
2023/09/04 00:09:19;;;;;;;5.65;3.72;;;;;;;13.17;100.00;101877.06;689392;28;1811;-61
2023/09/04 00:09:39;;;;;;;4.93;3.50;;;;;;;13.16;100.00;101877.94;690307;28;1252;-61
2023/09/04 00:10:00;;;;;;;4.95;3.50;;;;;;;13.18;100.00;101880.56;689335;28;1948;-62
2023/09/04 00:10:21;;;;;;;4.50;3.40;;;;;;;13.18;100.00;101880.56;689654;28;4437;-60
2023/09/04 00:10:43;;;;;;;4.82;3.55;;;;;;;13.17;100.00;101876.19;690592;28;1002;-61
2023/09/04 00:11:03;;;;;;;5.28;3.88;;;;;;;13.16;100.00;101882.31;688390;28;1759;-60
2023/09/04 00:11:25;;;;;;;6.00;4.10;;;;;;;13.15;100.00;101883.19;690695;28;1000;-60
2023/09/04 00:11:46;;;;;;;5.32;3.83;;;;;;;13.15;100.00;101877.94;690620;28;912;-59
2023/09/04 00:12:06;;;;;;;5.10;3.80;;;;;;;13.14;100.00;101887.56;687328;28;1850;-60
2023/09/04 00:12:29;;;;;;;4.90;3.47;;;;;;;13.15;100.00;101881.41;690359;28;956;-60
2023/09/04 00:12:49;;;;;;;5.10;3.50;;;;;;;13.17;100.00;101884.06;687645;28;877;-60
2023/09/04 00:13:11;;;;;;;7.00;3.70;;;;;;;13.16;100.00;101880.56;685644;28;4486;-60
2023/09/04 00:13:32;;;;;;;6.30;3.65;;;;;;;13.17;100.00;101889.34;689924;28;1504;-60
2023/09/04 00:13:53;;;;;;;6.50;3.80;;;;;;;13.16;100.00;101888.44;684763;28;937;-60
2023/09/04 00:14:15;;;;;;;5.55;3.80;;;;;;;13.15;100.00;101875.31;684001;28;1432;-61
2023/09/04 00:14:36;;;;;;;6.10;3.70;;;;;;;13.11;100.00;101880.53;684941;28;877;-61
2023/09/04 00:14:56;;;;;;;5.30;3.50;;;;;;;13.12;100.00;101886.66;685948;28;1505;-60
2023/09/04 00:15:16;;;;;;;5.53;3.58;;;;;;;13.10;100.00;101877.91;683652;28;1695;-60
2023/09/04 00:15:38;;;;;;;5.37;3.50;;;;;;;13.09;100.00;101879.66;685757;28;821;-61
2023/09/04 00:16:01;;;;;;;5.50;3.47;;;;;;;13.10;100.00;101880.53;686910;28;1208;-61
2023/09/04 00:16:21;;;;;;;5.30;3.72;;;;;;;13.10;100.00;101878.78;686330;28;4485;-60
2023/09/04 00:16:42;;;;;;;5.20;3.80;;;;;;;13.09;100.00;101876.16;689088;28;3508;-61
2023/09/04 00:17:03;;;;;;;5.30;3.72;;;;;;;13.07;100.00;101883.13;688567;28;990;-61
2023/09/04 00:17:23;;;;;;;5.30;3.87;;;;;;;13.05;100.00;101879.63;690697;28;980;-60
2023/09/04 00:17:48;;;;;;;6.20;3.80;;;;;;;13.06;100.00;101881.41;690555;28;762;-60
2023/09/04 00:18:08;;;;;;;5.90;3.77;;;;;;;13.06;100.00;101879.66;688606;28;1804;-60
2023/09/04 00:18:30;;;;;;;4.93;3.60;;;;;;;13.05;100.00;101884.88;690477;28;1414;-61
2023/09/04 00:18:51;;;;;;;5.65;3.72;;;;;;;13.05;100.00;101883.13;690154;28;931;-60
2023/09/04 00:19:11;;;;;;;5.55;3.72;;;;;;;13.06;100.00;101882.28;688181;28;4434;-60
2023/09/04 00:19:34;;;;;;;5.63;3.90;;;;;;;13.05;100.00;101877.88;693410;28;912;-60
2023/09/04 00:19:56;;;;;;;5.35;3.70;;;;;;;13.05;100.00;101879.63;692575;28;1247;-61
2023/09/04 00:20:17;;;;;;;5.70;3.63;;;;;;;13.04;100.00;101878.78;691929;28;1767;-60
2023/09/04 00:20:37;;;;;;;5.70;3.65;;;;;;;13.04;100.00;101888.38;692914;28;1648;-60
2023/09/04 00:20:57;;;;;;;5.93;3.90;;;;;;;13.02;100.00;101872.63;692926;28;848;-60
2023/09/04 00:21:18;;;;;;;4.90;3.60;;;;;;;13.03;100.00;101881.38;691668;28;2091;-60
2023/09/04 00:21:38;;;;;;;5.10;3.70;;;;;;;13.03;100.00;101878.75;692961;28;1282;-60
2023/09/04 00:21:58;;;;;;;5.73;3.73;;;;;;;13.02;100.00;101880.50;693064;28;876;-61
2023/09/04 00:22:19;;;;;;;5.40;3.70;;;;;;;13.03;100.00;101876.13;690961;28;4406;-60
2023/09/04 00:22:39;;;;;;;4.77;3.53;;;;;;;13.02;100.00;101875.25;693302;28;880;-61
2023/09/04 00:23:00;;;;;;;4.70;3.63;;;;;;;13.01;100.00;101878.75;692619;28;1201;-60
2023/09/04 00:23:20;;;;;;;5.17;3.70;;;;;;;13.02;100.00;101875.25;691583;28;1710;-60
2023/09/04 00:23:41;;;;;;;6.13;3.88;;;;;;;13.00;100.00;101874.38;692969;28;786;-60
2023/09/04 00:24:01;;;;;;;6.85;3.78;;;;;;;13.00;100.00;101868.22;692194;28;1974;-61
2023/09/04 00:24:23;;;;;;;5.87;3.70;;;;;;;13.01;100.00;101872.63;693182;28;1580;-62
2023/09/04 00:24:44;;;;;;;4.93;3.47;;;;;;;13.01;100.00;101867.38;693149;28;1267;-60
2023/09/04 00:25:04;;;;;;;4.60;3.50;;;;;;;13.00;100.00;101878.72;691474;28;1969;-60
2023/09/04 00:25:25;;;;;;;4.78;3.58;;;;;;;12.99;100.00;101864.75;692608;28;4290;-59
2023/09/04 00:25:46;;;;;;;6.83;4.00;;;;;;;12.98;100.00;101877.88;693399;28;907;-61
2023/09/04 00:26:06;;;;;;;6.45;3.83;;;;;;;12.99;100.00;101880.50;691916;28;1441;-60
2023/09/04 00:26:27;;;;;;;6.33;3.90;;;;;;;12.98;100.00;101868.22;693114;28;1337;-60
2023/09/04 00:26:47;;;;;;;6.47;3.80;;;;;;;12.97;100.00;101876.09;693269;28;1026;-60
2023/09/04 00:27:08;;;;;;;6.30;3.78;;;;;;;12.98;100.00;101873.47;690745;28;1710;-60
2023/09/04 00:27:28;;;;;;;7.10;3.90;;;;;;;12.99;100.00;101874.34;693431;28;793;-61
2023/09/04 00:27:49;;;;;;;7.03;3.70;;;;;;;12.99;100.00;101872.63;689921;28;1236;-60
2023/09/04 00:28:10;;;;;;;5.05;3.88;;;;;;;12.98;100.00;101878.72;688598;28;4552;-61
2023/09/04 00:28:30;;;;;;;6.13;3.88;;;;;;;12.98;100.00;101875.25;690038;28;1475;-60
2023/09/04 00:28:51;;;;;;;6.20;3.80;;;;;;;12.95;100.00;101874.34;687179;28;1413;-60
2023/09/04 00:29:11;;;;;;;5.93;3.78;;;;;;;12.94;100.00;101877.84;685984;28;1611;-61
2023/09/04 00:29:33;;;;;;;5.77;4.10;;;;;;;12.91;100.00;101879.56;687152;28;1146;-60
2023/09/04 00:29:54;;;;;;;5.43;3.60;;;;;;;12.92;100.00;101874.34;688718;28;987;-61
2023/09/04 00:30:15;;;;;;;5.77;3.80;;;;;;;12.93;100.00;101870.84;688924;28;1711;-62
2023/09/04 00:30:35;;;;;;;5.93;3.58;;;;;;;12.94;100.00;101882.22;690120;28;1015;-60
2023/09/04 00:30:57;;;;;;;5.88;3.60;;;;;;;12.94;100.00;101877.84;685118;28;1524;-60
2023/09/04 00:31:18;;;;;;;6.00;3.83;;;;;;;12.93;100.00;101876.09;685941;28;4398;-60
2023/09/04 00:31:38;;;;;;;5.80;3.70;;;;;;;12.93;100.00;101876.09;690404;28;873;-60
2023/09/04 00:31:58;;;;;;;6.13;4.00;;;;;;;12.95;100.00;101879.59;689190;28;805;-61
2023/09/04 00:32:19;;;;;;;5.47;3.80;;;;;;;12.95;100.00;101879.59;689107;28;1871;-61
2023/09/04 00:32:42;;;;;;;5.00;3.63;;;;;;;12.94;100.00;101880.47;690623;28;1140;-60
2023/09/04 00:33:02;;;;;;;5.15;3.38;;;;;;;12.94;100.00;101882.22;688438;28;1788;-61
2023/09/04 00:33:23;;;;;;;5.80;3.58;;;;;;;12.92;100.00;101876.97;689977;28;1969;-60
2023/09/04 00:33:43;;;;;;;5.73;3.60;;;;;;;12.91;100.00;101877.81;690676;28;819;-60
2023/09/04 00:34:04;;;;;;;4.90;3.65;;;;;;;12.91;100.00;101879.56;691355;28;2138;-60
2023/09/04 00:34:24;;;;;;;5.10;3.50;;;;;;;12.89;100.00;101882.19;689762;28;4542;-61
2023/09/04 00:34:44;;;;;;;5.47;3.70;;;;;;;12.89;100.00;101879.56;688941;28;1087;-61
2023/09/04 00:35:06;;;;;;;5.93;3.70;;;;;;;12.88;100.00;101877.81;687725;28;1738;-60
2023/09/04 00:35:26;;;;;;;5.55;3.70;;;;;;;12.88;100.00;101883.06;685448;28;1784;-60
2023/09/04 00:35:46;;;;;;;5.18;3.60;;;;;;;12.87;100.00;101878.66;685734;28;1142;-60
2023/09/04 00:36:07;;;;;;;5.40;3.50;;;;;;;12.85;100.00;101883.06;683986;28;2425;-60
2023/09/04 00:36:27;;;;;;;5.22;3.50;;;;;;;12.83;100.00;101882.16;687419;28;2244;-60
2023/09/04 00:36:48;;;;;;;5.53;3.73;;;;;;;12.83;100.00;101879.53;688110;28;905;-61
2023/09/04 00:37:09;;;;;;;6.40;4.03;;;;;;;12.80;100.00;101882.13;686496;28;4426;-61
2023/09/04 00:37:30;;;;;;;5.80;3.95;;;;;;;12.77;100.00;101883.00;688379;28;1155;-60
2023/09/04 00:37:50;;;;;;;6.50;4.00;;;;;;;12.75;100.00;101882.13;689869;28;884;-60
2023/09/04 00:38:11;;;;;;;6.67;3.90;;;;;;;12.75;100.00;101886.47;688730;28;2130;-61
2023/09/04 00:38:31;;;;;;;5.77;3.97;;;;;;;12.74;100.00;101879.50;687600;28;1348;-60
2023/09/04 00:38:52;;;;;;;6.10;4.00;;;;;;;12.74;100.00;101885.59;687687;28;1512;-60
2023/09/04 00:39:13;;;;;;;6.00;4.30;;;;;;;12.73;100.00;101883.84;682253;28;5207;-60
2023/09/04 00:39:36;;;;;;;5.90;4.17;;;;;;;12.72;100.00;101882.13;683447;28;913;-61
2023/09/04 00:39:56;;;;;;;5.50;3.97;;;;;;;12.70;100.00;101881.22;685559;28;1156;-60
2023/09/04 00:40:17;;;;;;;5.90;4.20;;;;;;;12.71;100.00;101884.69;685933;28;4570;-60
2023/09/04 00:40:37;;;;;;;6.53;3.97;;;;;;;12.70;100.00;101883.84;689052;28;1485;-60
2023/09/04 00:40:58;;;;;;;6.37;4.03;;;;;;;12.71;100.00;101879.44;688657;28;1174;-61
2023/09/04 00:41:19;;;;;;;5.68;4.00;;;;;;;12.72;100.00;101881.22;685974;28;1814;-61
2023/09/04 00:41:39;;;;;;;5.40;3.70;;;;;;;12.73;100.00;101880.34;687360;28;900;-60
2023/09/04 00:41:59;;;;;;;5.00;3.63;;;;;;;12.72;100.00;101878.59;687710;28;1532;-60
2023/09/04 00:42:20;;;;;;;6.03;4.03;;;;;;;12.73;100.00;101878.59;688559;28;1888;-62
2023/09/04 00:42:41;;;;;;;6.60;4.00;;;;;;;12.72;100.00;101881.22;687669;28;1362;-61
2023/09/04 00:43:02;;;;;;;6.25;3.90;;;;;;;12.73;100.00;101886.47;687249;28;832;-60
2023/09/04 00:43:22;;;;;;;5.43;3.80;;;;;;;12.72;100.00;101876.88;685828;28;4440;-61
2023/09/04 00:43:43;;;;;;;7.07;3.90;;;;;;;12.72;100.00;101874.25;686919;28;943;-60
2023/09/04 00:44:03;;;;;;;6.33;3.87;;;;;;;12.73;100.00;101878.59;686209;28;1479;-60
2023/09/04 00:44:24;;;;;;;5.80;3.88;;;;;;;12.74;100.00;101887.38;684919;28;884;-61
2023/09/04 00:44:46;;;;;;;5.63;3.97;;;;;;;12.73;100.00;101875.97;685172;28;845;-61
2023/09/04 00:45:11;;;;;;;7.15;4.68;;;;;;;12.73;100.00;101883.84;682465;28;2218;-61
2023/09/04 00:45:34;;;;;;;5.40;3.85;;;;;;;12.74;100.00;101880.38;682704;28;1329;-61
2023/09/04 00:45:55;;;;;;;5.80;4.07;;;;;;;12.74;100.00;101882.13;684485;28;1286;-60
2023/09/04 00:46:15;;;;;;;5.65;3.97;;;;;;;12.73;100.00;101882.97;682433;28;4589;-61
2023/09/04 00:46:38;;;;;;;5.23;3.90;;;;;;;12.73;100.00;101880.34;685263;28;953;-60
2023/09/04 00:46:59;;;;;;;5.43;3.80;;;;;;;12.74;100.00;101880.38;687701;28;995;-61
2023/09/04 00:47:23;;;;;;;6.00;3.83;;;;;;;12.74;100.00;101876.88;686427;28;2199;-60
2023/09/04 00:47:44;;;;;;;5.70;3.80;;;;;;;12.70;100.00;101878.59;687778;28;1392;-60
2023/09/04 00:48:05;;;;;;;5.40;3.80;;;;;;;12.68;100.00;101882.97;684693;28;1542;-60
2023/09/04 00:48:26;;;;;;;5.60;4.00;;;;;;;12.69;100.00;101881.19;688561;28;889;-60
2023/09/04 00:48:47;;;;;;;5.93;4.15;;;;;;;12.66;100.00;101879.44;690106;28;1271;-62
2023/09/04 00:49:09;;;;;;;5.60;3.85;;;;;;;12.64;100.00;101878.56;688752;28;1485;-60
2023/09/04 00:49:30;;;;;;;6.22;3.85;;;;;;;12.64;100.00;101875.03;689850;28;5075;-60
2023/09/04 00:49:52;;;;;;;5.78;4.00;;;;;;;12.64;100.00;101885.53;690291;28;837;-62
2023/09/04 00:50:21;;;;;;;5.50;4.03;;;;;;;12.60;100.00;101876.78;688658;28;1812;-60
2023/09/04 00:50:42;;;;;;;5.78;3.83;;;;;;;12.60;100.00;101877.66;684399;28;1490;-61
2023/09/04 00:51:03;;;;;;;5.93;4.20;;;;;;;12.63;100.00;101870.66;682647;28;1324;-61
2023/09/04 00:51:26;;;;;;;5.50;4.18;;;;;;;12.63;100.00;101883.78;686833;28;926;-60
2023/09/04 00:51:46;;;;;;;6.13;4.05;;;;;;;12.63;100.00;101876.81;684845;28;2231;-62
2023/09/04 00:52:07;;;;;;;6.05;4.03;;;;;;;12.62;100.00;101874.19;685074;28;1914;-61
2023/09/04 00:52:28;;;;;;;5.00;3.70;;;;;;;12.63;100.00;101876.81;686291;28;4450;-61
2023/09/04 00:52:51;;;;;;;5.30;3.67;;;;;;;12.60;100.00;101875.03;687300;28;1295;-61
2023/09/04 00:53:12;;;;;;;5.85;3.90;;;;;;;12.60;100.00;101876.78;685454;28;1970;-60
2023/09/04 00:53:35;;;;;;;5.50;3.90;;;;;;;12.61;100.00;101870.66;686546;28;826;-62
2023/09/04 00:53:55;;;;;;;5.57;3.97;;;;;;;12.60;100.00;101882.03;689740;28;2046;-61
2023/09/04 00:54:17;;;;;;;6.00;3.97;;;;;;;12.58;100.00;101873.25;688759;28;2416;-61
2023/09/04 00:54:39;;;;;;;5.70;4.00;;;;;;;12.58;100.00;101868.88;688864;28;1432;-61
2023/09/04 00:55:00;;;;;;;5.40;3.97;;;;;;;12.57;100.00;101869.78;690061;28;913;-59
2023/09/04 00:55:22;;;;;;;6.50;4.30;;;;;;;12.58;100.00;101868.03;688145;28;4442;-60
2023/09/04 00:55:43;;;;;;;5.75;3.90;;;;;;;12.56;100.00;101875.88;686675;28;1023;-61
2023/09/04 00:56:05;;;;;;;5.85;3.85;;;;;;;12.56;100.00;101870.63;682517;28;1996;-62
2023/09/04 00:56:25;;;;;;;6.70;4.25;;;;;;;12.57;100.00;101874.13;685452;28;1020;-61
2023/09/04 00:56:48;;;;;;;5.82;4.10;;;;;;;12.57;100.00;101872.41;687145;28;1520;-61
2023/09/04 00:57:10;;;;;;;6.38;3.83;;;;;;;12.56;100.00;101868.00;684105;28;1775;-60
2023/09/04 00:57:33;;;;;;;6.03;3.75;;;;;;;12.57;100.00;101867.16;684394;28;1402;-61
2023/09/04 00:57:54;;;;;;;4.95;3.90;;;;;;;12.58;100.00;101873.25;684049;28;1175;-62
2023/09/04 00:58:14;;;;;;;5.25;3.80;;;;;;;12.58;100.00;101861.00;684390;28;4480;-61
2023/09/04 00:58:35;;;;;;;6.50;4.07;;;;;;;12.56;100.00;101865.38;686654;28;1219;-60
2023/09/04 00:58:56;;;;;;;6.53;4.13;;;;;;;12.55;100.00;101861.00;685179;28;806;-61
2023/09/04 00:59:16;;;;;;;5.82;3.90;;;;;;;12.55;100.00;101863.63;688564;28;1811;-60
2023/09/04 00:59:37;;;;;;;5.33;3.80;;;;;;;12.54;100.00;101864.47;692887;28;1197;-60
2023/09/04 01:00:01;;;;;;;5.40;3.60;;;;;;;12.55;100.00;101855.75;693122;28;957;-61
2023/09/04 01:00:27;;;;;;;6.57;4.03;;;;;;;12.55;100.00;101858.38;685625;28;1549;-61
2023/09/04 01:00:47;;;;;;;6.40;3.88;;;;;;;12.52;100.00;101861.00;684502;28;1312;-61
2023/09/04 01:01:08;;;;;;;5.93;3.65;;;;;;;12.54;100.00;101861.00;680550;28;1327;-60
2023/09/04 01:01:29;;;;;;;7.50;3.93;;;;;;;12.53;100.00;101860.13;680209;29;5241;-61
2023/09/04 01:01:50;;;;;;;6.32;4.03;;;;;;;12.54;100.00;101861.88;680378;29;1335;-61
2023/09/04 01:02:14;;;;;;;7.22;4.30;;;;;;;12.54;100.00;101856.63;683834;28;1786;-61
2023/09/04 01:02:34;;;;;;;6.15;4.10;;;;;;;12.53;100.00;101859.22;684267;28;943;-60
2023/09/04 01:02:59;;;;;;;5.75;3.75;;;;;;;12.52;100.00;101862.75;687559;28;1250;-61
2023/09/04 01:03:21;;;;;;;5.00;3.80;;;;;;;12.50;100.00;101860.13;686903;28;1809;-60
2023/09/04 01:03:41;;;;;;;5.00;4.00;;;;;;;12.50;100.00;101859.22;689762;28;2040;-61
2023/09/04 01:04:02;;;;;;;5.73;4.10;;;;;;;12.49;100.00;101857.47;686404;28;1223;-61
2023/09/04 01:04:25;;;;;;;5.43;3.85;;;;;;;12.50;100.00;101859.22;682692;28;4658;-61
2023/09/04 01:04:45;;;;;;;5.72;4.00;;;;;;;12.50;100.00;101864.47;685025;28;1353;-61
2023/09/04 01:05:06;;;;;;;6.00;3.90;;;;;;;12.49;100.00;101858.34;681173;28;1284;-62
2023/09/04 01:05:28;;;;;;;6.70;3.90;;;;;;;12.49;100.00;101865.31;683298;28;894;-61
2023/09/04 01:05:48;;;;;;;5.82;3.83;;;;;;;12.49;100.00;101865.31;684367;28;902;-60
2023/09/04 01:06:11;;;;;;;5.47;4.03;;;;;;;12.47;100.00;101865.31;684804;28;1782;-61
2023/09/04 01:06:32;;;;;;;5.30;3.97;;;;;;;12.53;100.00;101857.50;683094;28;1455;-60
2023/09/04 01:06:53;;;;;;;5.25;4.05;;;;;;;12.55;100.00;101854.88;688826;28;1193;-61
2023/09/04 01:07:13;;;;;;;5.23;3.70;;;;;;;12.54;100.00;101856.63;691213;28;4493;-60
2023/09/04 01:07:35;;;;;;;4.93;3.42;;;;;;;12.55;100.00;101862.75;689994;28;1361;-61
2023/09/04 01:07:55;;;;;;;5.00;3.60;;;;;;;12.51;100.00;101856.59;689838;28;1555;-60
2023/09/04 01:08:16;;;;;;;5.50;3.80;;;;;;;12.52;100.00;101858.38;689132;28;2351;-60
2023/09/04 01:08:39;;;;;;;6.10;3.95;;;;;;;12.49;100.00;101855.72;689345;28;951;-61
2023/09/04 01:09:00;;;;;;;6.00;3.90;;;;;;;12.49;100.00;101860.97;686740;28;881;-61
2023/09/04 01:09:21;;;;;;;5.80;3.95;;;;;;;12.48;100.00;101855.72;688860;28;1929;-61
2023/09/04 01:09:42;;;;;;;5.30;4.00;;;;;;;12.47;100.00;101857.44;689746;28;1055;-60
2023/09/04 01:10:03;;;;;;;5.47;4.00;;;;;;;12.44;100.00;101857.44;687739;28;881;-60
2023/09/04 01:10:28;;;;;;;6.20;3.85;;;;;;;12.43;100.00;101855.69;686890;28;4771;-60
2023/09/04 01:11:11;;;;;;;5.30;3.90;;;;;;;12.39;100.00;101851.28;687529;28;865;-60
2023/09/04 01:11:46;;;;;;;7.50;4.13;;;;;;;12.39;100.00;101854.78;684352;28;1220;-63
2023/09/04 01:12:21;;;;;;;6.20;4.50;;;;;;;12.41;100.00;101857.44;686173;28;1771;-63
2023/09/04 01:13:02;;;;;;;5.68;4.22;;;;;;;12.37;100.00;101853.03;689338;28;1026;-62
2023/09/04 01:13:46;;;;;;;7.88;4.10;;;;;;;12.37;100.00;101858.28;686153;28;4359;-62
2023/09/04 01:14:28;;;;;;;5.78;3.90;;;;;;;12.36;100.00;101852.13;684882;28;1769;-62
2023/09/04 01:14:53;;;;;;;4.93;3.92;;;;;;;12.37;100.00;101850.41;689921;28;1099;-63
2023/09/04 01:15:14;;;;;;;6.38;4.18;;;;;;;12.36;100.00;101851.25;684804;28;1453;-62
2023/09/04 01:15:35;;;;;;;5.72;3.90;;;;;;;12.37;100.00;101858.28;687683;28;832;-61
2023/09/04 01:15:56;;;;;;;5.60;3.90;;;;;;;12.37;100.00;101858.28;687422;28;900;-63
2023/09/04 01:16:18;;;;;;;5.90;4.20;;;;;;;12.36;100.00;101852.13;689136;28;4616;-62
2023/09/04 01:16:39;;;;;;;5.82;3.95;;;;;;;12.35;100.00;101852.13;690140;28;1249;-60
2023/09/04 01:17:00;;;;;;;5.45;4.10;;;;;;;12.33;100.00;101853.88;689118;28;993;-60
2023/09/04 01:17:22;;;;;;;6.95;4.20;;;;;;;12.33;100.00;101848.63;683196;28;1468;-67
2023/09/04 01:17:44;;;;;;;6.03;3.75;;;;;;;12.33;100.00;101857.34;687451;28;1471;-62
2023/09/04 01:18:06;;;;;;;6.18;3.80;;;;;;;12.33;100.00;101859.13;686806;28;1351;-60
2023/09/04 01:18:28;;;;;;;7.32;3.90;;;;;;;12.32;100.00;101854.72;686119;28;1015;-61
2023/09/04 01:18:49;;;;;;;5.63;3.83;;;;;;;12.34;100.00;101847.78;687612;28;956;-60
2023/09/04 01:19:12;;;;;;;6.15;4.15;;;;;;;12.32;100.00;101852.97;685925;28;4644;-60
2023/09/04 01:19:37;;;;;;;6.05;4.15;;;;;;;12.32;100.00;101850.34;687485;28;1311;-60
2023/09/04 01:19:58;;;;;;;5.95;4.35;;;;;;;12.32;100.00;101847.72;689048;28;2097;-60
2023/09/04 01:20:29;;;;;;;6.00;4.15;;;;;;;12.26;100.00;101851.19;687592;28;2539;-60
2023/09/04 01:21:01;;;;;;;6.80;4.10;;;;;;;12.23;100.00;101848.56;689652;28;1239;-60
2023/09/04 01:21:21;;;;;;;5.63;4.22;;;;;;;12.24;100.00;101852.06;687571;28;2237;-60
2023/09/04 01:21:41;;;;;;;6.30;4.03;;;;;;;12.24;100.00;101847.69;692587;28;1547;-60
2023/09/04 01:22:02;;;;;;;6.05;4.15;;;;;;;12.25;100.00;101856.44;693067;28;1134;-62
2023/09/04 01:22:22;;;;;;;5.77;4.37;;;;;;;12.24;100.00;101850.31;690619;28;4528;-60
2023/09/04 01:22:43;;;;;;;6.53;4.15;;;;;;;12.24;100.00;101850.31;690500;28;816;-59
2023/09/04 01:23:03;;;;;;;7.63;4.00;;;;;;;12.25;100.00;101846.84;690240;28;1143;-61
2023/09/04 01:23:25;;;;;;;5.85;3.70;;;;;;;12.27;100.00;101847.72;687557;28;1647;-62
2023/09/04 01:23:46;;;;;;;5.72;4.05;;;;;;;12.26;100.00;101850.31;690360;28;944;-60
2023/09/04 01:24:09;;;;;;;6.80;4.23;;;;;;;12.26;100.00;101847.69;690459;28;884;-61
2023/09/04 01:24:29;;;;;;;5.45;3.90;;;;;;;12.29;100.00;101844.22;684445;28;840;-61
2023/09/04 01:24:50;;;;;;;6.10;4.03;;;;;;;12.29;100.00;101846.84;685481;28;1312;-61
2023/09/04 01:25:11;;;;;;;6.50;4.00;;;;;;;12.29;100.00;101844.22;684430;28;4419;-61
2023/09/04 01:25:43;;;;;;;6.13;3.95;;;;;;;12.26;100.00;101843.31;685541;28;1378;-60
2023/09/04 01:26:08;;;;;;;5.88;4.07;;;;;;;12.25;100.00;101843.31;683052;28;1254;-60
2023/09/04 01:26:49;;;;;;;5.43;4.00;;;;;;;12.24;100.00;101834.59;681890;29;893;-61
2023/09/04 01:27:21;;;;;;;7.07;4.03;;;;;;;12.23;100.00;101845.94;683073;28;2536;-61
2023/09/04 01:27:50;;;;;;;5.40;3.78;;;;;;;12.20;100.00;101840.66;684627;28;833;-61
2023/09/04 01:28:24;;;;;;;5.75;3.92;;;;;;;12.23;100.00;101845.94;685686;28;4414;-60
2023/09/04 01:28:56;;;;;;;5.78;3.83;;;;;;;12.25;100.00;101836.34;683554;28;1332;-60
2023/09/04 01:29:29;;;;;;;6.68;4.07;;;;;;;12.27;100.00;101842.47;686500;28;1488;-60
2023/09/04 01:29:56;;;;;;;5.93;3.92;;;;;;;12.27;100.00;101833.72;686733;28;1206;-60
2023/09/04 01:30:42;;;;;;;6.57;3.85;;;;;;;12.30;100.00;101835.50;685718;28;1707;-59
2023/09/04 01:31:22;;;;;;;5.40;3.97;;;;;;;12.27;100.00;101828.50;686707;28;1285;-60
2023/09/04 01:31:52;;;;;;;5.95;3.95;;;;;;;12.24;100.00;101836.34;689150;28;4981;-60
2023/09/04 01:32:41;;;;;;;5.82;4.03;;;;;;;12.26;100.00;101829.34;688565;28;1877;-59
2023/09/04 01:33:04;;;;;;;5.75;3.85;;;;;;;12.26;100.00;101826.72;685651;28;1429;-61
2023/09/04 01:33:31;;;;;;;6.07;3.95;;;;;;;12.24;100.00;101831.97;688592;28;1979;-60
2023/09/04 01:33:59;;;;;;;5.17;3.87;;;;;;;12.26;100.00;101830.22;688623;28;2193;-60
2023/09/04 01:34:27;;;;;;;5.05;3.72;;;;;;;12.26;100.00;101834.59;687567;28;4546;-60
2023/09/04 01:34:51;;;;;;;5.97;3.90;;;;;;;12.24;100.00;101826.72;688341;28;1008;-60
2023/09/04 01:35:14;;;;;;;6.28;4.30;;;;;;;12.22;100.00;101832.81;688296;28;1473;-61
2023/09/04 01:35:35;;;;;;;5.78;4.05;;;;;;;12.19;100.00;101838.91;687586;28;959;-61
2023/09/04 01:36:01;;;;;;;5.50;4.18;;;;;;;12.17;100.00;101832.78;687829;28;1291;-62
2023/09/04 01:36:25;;;;;;;6.30;4.10;;;;;;;12.17;100.00;101834.50;685015;28;1735;-61
2023/09/04 01:36:48;;;;;;;6.50;4.05;;;;;;;12.14;100.00;101831.88;683020;28;1090;-59
2023/09/04 01:37:09;;;;;;;5.70;4.20;;;;;;;12.11;100.00;101835.34;681825;28;4928;-62
2023/09/04 01:37:30;;;;;;;5.45;4.10;;;;;;;12.10;100.00;101838.81;684716;28;1394;-61
2023/09/04 01:37:51;;;;;;;7.07;3.90;;;;;;;12.10;100.00;101828.34;684320;28;1599;-60
2023/09/04 01:38:12;;;;;;;5.68;4.00;;;;;;;12.10;100.00;101830.97;683122;28;2244;-61
2023/09/04 01:38:34;;;;;;;5.47;4.10;;;;;;;12.07;100.00;101829.22;685289;28;845;-60
2023/09/04 01:38:55;;;;;;;5.68;4.00;;;;;;;12.07;100.00;101838.81;685234;28;1415;-60
2023/09/04 01:39:15;;;;;;;6.10;4.10;;;;;;;12.05;100.00;101833.56;685028;28;5373;-60
2023/09/04 01:39:38;;;;;;;5.67;4.27;;;;;;;12.05;100.00;101830.06;686024;28;790;-60
2023/09/04 01:39:58;;;;;;;5.18;4.00;;;;;;;12.08;100.00;101835.34;688329;28;1300;-60
2023/09/04 01:40:19;;;;;;;5.43;4.23;;;;;;;12.12;100.00;101831.88;686505;28;5232;-60
2023/09/04 01:40:40;;;;;;;5.95;4.10;;;;;;;12.15;100.00;101837.13;686362;28;916;-60
2023/09/04 01:41:06;;;;;;;5.35;3.90;;;;;;;12.18;100.00;101836.28;690239;28;948;-62
2023/09/04 01:41:26;;;;;;;5.10;3.97;;;;;;;12.20;100.00;101835.44;688734;28;1160;-60
2023/09/04 01:41:46;;;;;;;5.10;3.87;;;;;;;12.24;100.00;101831.09;687576;28;1464;-60
2023/09/04 01:42:07;;;;;;;5.70;4.05;;;;;;;12.26;100.00;101835.47;684593;28;869;-60
2023/09/04 01:42:27;;;;;;;5.70;4.00;;;;;;;12.26;100.00;101835.47;684103;28;1431;-60
2023/09/04 01:42:47;;;;;;;5.55;4.22;;;;;;;12.27;100.00;101837.22;687734;28;1105;-61
2023/09/04 01:43:08;;;;;;;5.33;3.93;;;;;;;12.27;100.00;101834.59;687324;28;1252;-60
2023/09/04 01:43:29;;;;;;;5.10;3.77;;;;;;;12.26;100.00;101840.69;685249;28;5717;-61
2023/09/04 01:43:49;;;;;;;5.00;3.78;;;;;;;12.26;100.00;101832.84;689838;28;1387;-60
2023/09/04 01:44:10;;;;;;;5.13;3.77;;;;;;;12.25;100.00;101836.34;688499;28;1468;-61
2023/09/04 01:44:31;;;;;;;5.95;3.70;;;;;;;12.24;100.00;101836.34;687282;28;1311;-60
2023/09/04 01:44:51;;;;;;;7.03;4.00;;;;;;;12.22;100.00;101838.94;687658;28;1038;-60
2023/09/04 01:45:12;;;;;;;5.93;3.97;;;;;;;12.24;100.00;101829.34;682904;28;2585;-60
2023/09/04 01:45:32;;;;;;;6.07;3.97;;;;;;;12.24;100.00;101831.09;683300;28;1387;-60
2023/09/04 01:45:53;;;;;;;6.07;4.00;;;;;;;12.21;100.00;101839.81;683904;28;861;-60